Time;durP1;ratioP1;P1;durP2;ratioP2;P2;SDS_P1;SDS_P2;PMS_P1;PMS_P2;Temp;Humidity;BMP_temperature;BMP_pressure;BME280_temperature;BME280_humidity;BME280_pressure;Samples;Min_cycle;Max_cycle;Signal;HPM_P1;HPM_P2
2022/05/13 00:02:07;;;;;;;6.40;3.08;;;12.50;74.70;;;;;;5033253;28;20021;-74
2022/05/13 00:04:33;;;;;;;3.72;3.08;;;12.60;75.70;;;;;;5033260;28;20034;-73
2022/05/13 00:06:59;;;;;;;10.95;3.22;;;12.50;75.70;;;;;;5034181;28;20022;-73
2022/05/13 00:09:56;;;;;;;5.95;2.92;;;12.60;74.80;;;;;;5034220;28;20491;-73
2022/05/13 00:12:10;;;;;;;6.50;3.78;;;12.60;75.00;;;;;;5034019;28;20087;-73
2022/05/13 00:14:36;;;;;;;5.90;3.42;;;12.60;78.80;;;;;;5034074;28;20029;-73
2022/05/13 00:17:01;;;;;;;4.93;2.53;;;12.60;77.70;;;;;;5033834;28;20402;-72
2022/05/13 00:19:27;;;;;;;5.78;2.55;;;12.60;75.50;;;;;;5034204;28;20483;-73
2022/05/13 00:21:52;;;;;;;4.80;2.40;;;12.60;76.00;;;;;;5033920;28;20402;-73
2022/05/13 00:24:18;;;;;;;6.63;2.75;;;12.60;76.40;;;;;;5034094;28;20061;-72
2022/05/13 00:26:44;;;;;;;3.95;2.33;;;12.60;76.40;;;;;;5034030;28;20071;-73
2022/05/13 00:29:09;;;;;;;8.73;2.45;;;12.60;75.90;;;;;;5016301;28;20025;-72
2022/05/13 00:31:35;;;;;;;3.45;1.90;;;12.60;76.10;;;;;;5034020;28;20506;-73
2022/05/13 00:34:01;;;;;;;2.35;2.15;;;12.50;77.70;;;;;;5033874;28;20380;-73
2022/05/13 00:36:27;;;;;;;4.55;2.55;;;12.50;78.40;;;;;;5033799;28;20029;-73
2022/05/13 00:38:52;;;;;;;4.72;3.20;;;12.50;79.50;;;;;;5016039;28;20026;-73
2022/05/13 00:41:18;;;;;;;6.03;3.20;;;12.50;81.40;;;;;;5033677;28;20083;-73
2022/05/13 00:43:52;;;;;;;5.32;3.20;;;12.40;81.00;;;;;;5033688;28;20037;-74
2022/05/13 00:46:19;;;;;;;9.35;5.15;;;12.30;80.30;;;;;;5033489;28;20112;-73
2022/05/13 00:48:46;;;;;;;9.60;4.65;;;12.20;83.70;;;;;;5015979;28;20021;-74
2022/05/13 00:51:14;;;;;;;6.47;3.58;;;12.10;86.90;;;;;;5033639;28;20063;-74
2022/05/13 00:53:40;;;;;;;5.97;3.28;;;12.10;86.80;;;;;;5033444;28;20029;-72
2022/05/13 00:56:07;;;;;;;5.15;2.97;;;12.10;78.80;;;;;;5033492;28;20047;-73
2022/05/13 00:58:36;;;;;;;7.72;3.08;;;12.10;77.00;;;;;;5031417;28;20121;-73
2022/05/13 01:01:02;;;;;;;5.03;3.80;;;12.20;77.30;;;;;;5032156;28;20021;-73
2022/05/13 01:03:27;;;;;;;6.07;3.20;;;12.30;77.20;;;;;;5033403;28;20133;-73
2022/05/13 01:05:59;;;;;;;10.52;4.13;;;12.30;78.00;;;;;;5033459;28;20490;-72
2022/05/13 01:08:26;;;;;;;5.30;2.88;;;12.30;76.90;;;;;;5033005;28;20018;-72
2022/05/13 01:10:53;;;;;;;7.70;3.13;;;12.30;77.20;;;;;;5033249;28;20394;-73
2022/05/13 01:13:23;;;;;;;7.63;3.53;;;12.20;77.60;;;;;;5033072;28;20036;-73
2022/05/13 01:15:49;;;;;;;6.57;3.08;;;12.30;78.60;;;;;;5015411;28;20022;-73
2022/05/13 01:18:33;;;;;;;6.65;3.28;;;12.30;80.20;;;;;;5015415;28;20067;-72
2022/05/13 01:21:02;;;;;;;4.43;2.70;;;12.20;81.50;;;;;;5033522;28;20056;-73
2022/05/13 01:23:31;;;;;;;11.20;3.22;;;12.20;82.90;;;;;;5033165;28;20471;-72
2022/05/13 01:26:03;;;;;;;4.15;2.42;;;12.20;82.20;;;;;;5033186;28;20024;-73
2022/05/13 01:28:41;;;;;;;3.75;2.67;;;12.20;81.50;;;;;;5033130;28;20044;-73
2022/05/13 01:31:11;;;;;;;3.17;2.70;;;12.20;82.00;;;;;;5033196;28;20105;-72
2022/05/13 01:33:37;;;;;;;4.13;3.10;;;12.20;83.40;;;;;;5032891;28;20061;-72
2022/05/13 01:36:05;;;;;;;5.43;3.75;;;12.20;84.00;;;;;;5033006;28;20104;-72
2022/05/13 01:38:34;;;;;;;4.80;3.45;;;12.20;82.70;;;;;;5015141;28;20033;-73
2022/05/13 01:40:59;;;;;;;7.65;3.00;;;12.30;81.90;;;;;;5033094;28;20082;-73
2022/05/13 01:43:26;;;;;;;7.00;3.00;;;12.20;79.50;;;;;;5032918;28;20507;-72
2022/05/13 01:45:53;;;;;;;7.20;2.80;;;12.30;79.00;;;;;;5032995;28;20099;-72
2022/05/13 01:48:19;;;;;;;10.27;2.53;;;12.30;78.40;;;;;;5015309;28;20076;-73
2022/05/13 01:50:44;;;;;;;8.50;2.60;;;12.30;77.60;;;;;;5033028;28;20459;-73
2022/05/13 01:53:10;;;;;;;4.07;2.65;;;12.20;77.30;;;;;;5032863;28;20478;-72
2022/05/13 01:55:39;;;;;;;6.00;2.85;;;12.30;77.20;;;;;;5033001;28;20025;-74
2022/05/13 01:58:04;;;;;;;5.10;2.90;;;12.30;76.70;;;;;;5032619;28;20498;-73
2022/05/13 02:00:30;;;;;;;8.55;3.17;;;12.40;74.50;;;;;;5032858;28;20026;-73
2022/05/13 02:05:40;;;;;;;8.20;2.85;;;12.40;77.30;;;;;;5033295;28;20091;-73
2022/05/13 02:08:07;;;;;;;4.05;2.42;;;12.50;78.20;;;;;;5032760;28;20029;-72
2022/05/13 02:10:32;;;;;;;5.85;2.72;;;12.50;79.60;;;;;;5035286;28;20013;-72
2022/05/13 02:12:59;;;;;;;6.40;2.72;;;12.40;82.50;;;;;;5036410;28;20139;-72
2022/05/13 02:15:24;;;;;;;6.85;2.78;;;12.40;83.50;;;;;;5036637;28;20032;-73
2022/05/13 02:17:50;;;;;;;6.30;2.88;;;12.50;84.80;;;;;;5036305;28;20442;-73
2022/05/13 02:20:15;;;;;;;2.35;2.13;;;12.50;84.20;;;;;;5036327;28;20386;-74
2022/05/13 02:22:41;;;;;;;6.30;3.17;;;12.50;82.00;;;;;;5036348;28;20533;-72
2022/05/13 02:25:07;;;;;;;4.30;2.40;;;12.50;79.60;;;;;;5036043;28;20364;-74
2022/05/13 02:27:33;;;;;;;6.90;2.80;;;12.60;79.20;;;;;;5036051;28;20026;-72
2022/05/13 02:29:58;;;;;;;3.92;2.80;;;12.60;78.90;;;;;;5018402;28;20120;-73
2022/05/13 02:32:24;;;;;;;5.50;2.58;;;12.60;83.30;;;;;;5018444;28;20052;-72
2022/05/13 02:34:49;;;;;;;3.53;2.95;;;12.60;84.70;;;;;;5036143;28;20025;-73
2022/05/13 02:37:16;;;;;;;5.40;2.55;;;12.60;85.50;;;;;;5036049;28;20037;-73
2022/05/13 02:39:42;;;;;;;4.13;2.22;;;12.50;82.60;;;;;;5035976;28;20488;-73
2022/05/13 02:42:08;;;;;;;3.70;2.60;;;12.60;82.70;;;;;;5018152;28;20029;-73
2022/05/13 02:44:33;;;;;;;4.88;2.60;;;12.50;84.10;;;;;;5017852;28;20021;-73
2022/05/13 02:46:59;;;;;;;3.45;2.28;;;12.40;90.00;;;;;;5035912;28;20032;-74
2022/05/13 02:49:24;;;;;;;7.35;3.42;;;12.40;90.40;;;;;;5035810;28;20022;-72
2022/05/13 02:51:50;;;;;;;4.85;2.65;;;12.50;92.00;;;;;;5033098;28;20029;-72
2022/05/13 02:54:16;;;;;;;3.92;2.50;;;12.50;90.80;;;;;;5035677;28;20041;-73
2022/05/13 02:56:43;;;;;;;6.80;2.75;;;12.40;88.90;;;;;;5035704;28;20057;-74
2022/05/13 02:59:09;;;;;;;5.68;2.35;;;12.50;89.90;;;;;;5035653;28;20025;-73
2022/05/13 03:01:35;;;;;;;4.70;2.70;;;12.50;89.90;;;;;;5035647;28;20100;-73
2022/05/13 03:04:01;;;;;;;6.60;2.60;;;12.40;92.10;;;;;;5035604;28;20116;-72
2022/05/13 03:06:27;;;;;;;4.85;2.65;;;12.40;91.60;;;;;;5035421;28;20384;-72
2022/05/13 03:08:53;;;;;;;5.78;2.35;;;12.40;91.40;;;;;;5035228;28;20021;-73
2022/05/13 03:11:23;;;;;;;3.00;2.58;;;12.40;90.70;;;;;;5035541;28;20028;-72
2022/05/13 03:13:50;;;;;;;2.80;2.53;;;12.50;94.30;;;;;;5035227;28;20487;-73
2022/05/13 03:16:20;;;;;;;4.97;2.70;;;12.50;93.30;;;;;;5035135;28;20072;-73
2022/05/13 03:18:47;;;;;;;3.88;2.95;;;12.50;94.80;;;;;;5035191;28;20060;-72
2022/05/13 03:21:13;;;;;;;4.18;2.47;;;12.50;95.60;;;;;;5034840;28;20022;-72
2022/05/13 03:23:42;;;;;;;6.43;2.40;;;12.60;94.60;;;;;;5035097;28;20360;-72
2022/05/13 03:26:08;;;;;;;9.68;2.63;;;12.60;92.90;;;;;;5017385;28;20017;-72
2022/05/13 03:28:34;;;;;;;6.28;2.90;;;12.60;92.60;;;;;;5035116;28;20028;-72
2022/05/13 03:30:59;;;;;;;6.60;3.35;;;12.70;95.20;;;;;;5034946;28;20065;-73
2022/05/13 03:33:25;;;;;;;6.03;3.65;;;12.60;98.00;;;;;;5034845;28;20059;-72
2022/05/13 03:35:50;;;;;;;8.40;3.35;;;12.60;99.90;;;;;;5034923;28;20049;-73
2022/05/13 03:38:16;;;;;;;7.10;3.17;;;12.60;99.90;;;;;;5034763;28;20479;-73
2022/05/13 03:40:42;;;;;;;7.63;4.13;;;12.50;99.90;;;;;;5034823;28;20049;-72
2022/05/13 03:43:07;;;;;;;5.03;3.45;;;12.60;99.90;;;;;;5034821;28;20231;-72
2022/05/13 03:45:35;;;;;;;9.18;3.70;;;12.60;99.90;;;;;;5016945;28;20525;-72
2022/05/13 03:48:02;;;;;;;10.07;3.22;;;12.60;99.90;;;;;;5034705;28;20161;-73
2022/05/13 03:50:28;;;;;;;7.40;3.55;;;12.60;99.90;;;;;;5034472;28;20036;-72
2022/05/13 03:52:53;;;;;;;3.42;3.13;;;12.60;99.90;;;;;;5034561;28;20390;-73
2022/05/13 03:55:19;;;;;;;4.45;3.15;;;12.70;99.90;;;;;;5034510;28;20096;-73
2022/05/13 03:57:45;;;;;;;5.50;2.90;;;12.70;99.50;;;;;;5034527;28;20039;-73
2022/05/13 04:00:13;;;;;;;6.40;3.00;;;12.80;97.40;;;;;;5034473;28;20017;-74
2022/05/13 04:02:39;;;;;;;2.95;2.63;;;12.80;95.50;;;;;;5034522;28;20038;-72
2022/05/13 04:10:37;;;;;;;2.72;2.38;;;12.90;90.60;;;;;;5034577;28;20505;-72
2022/05/13 04:16:06;;;;;;;11.50;3.58;;;12.80;91.10;;;;;;5034459;28;20045;-73
2022/05/13 04:18:39;;;;;;;4.43;2.65;;;12.90;91.10;;;;;;5034216;28;20041;-72
2022/05/13 04:21:10;;;;;;;7.43;2.83;;;12.90;89.90;;;;;;5016135;28;20026;-72
2022/05/13 04:23:41;;;;;;;4.22;2.50;;;12.90;86.50;;;;;;5016398;28;20026;-72
2022/05/13 04:26:07;;;;;;;5.57;2.90;;;12.90;82.50;;;;;;5034086;28;20387;-73
2022/05/13 04:28:33;;;;;;;3.95;2.58;;;13.00;82.00;;;;;;5034123;28;20037;-73
2022/05/13 04:30:59;;;;;;;5.38;2.72;;;13.10;81.90;;;;;;5016075;28;20032;-73
2022/05/13 04:33:25;;;;;;;5.88;2.85;;;13.10;82.50;;;;;;5033098;28;20030;-73
2022/05/13 04:35:51;;;;;;;3.10;2.72;;;13.10;82.50;;;;;;5016077;28;20041;-73
2022/05/13 04:38:17;;;;;;;5.30;2.90;;;13.20;83.90;;;;;;5033628;28;20041;-72
2022/05/13 04:40:43;;;;;;;4.10;2.78;;;13.20;84.10;;;;;;5016097;28;20026;-73
2022/05/13 04:43:08;;;;;;;7.88;3.17;;;13.30;84.00;;;;;;5033511;28;20029;-72
2022/05/13 04:45:34;;;;;;;8.80;2.88;;;13.50;84.50;;;;;;5033577;28;20022;-73
2022/05/13 04:48:15;;;;;;;7.75;2.90;;;13.60;82.50;;;;;;5033580;28;20083;-73
2022/05/13 04:50:43;;;;;;;29.35;4.95;;;13.70;80.90;;;;;;5042997;28;20047;-73
2022/05/13 04:53:10;;;;;;;5.95;2.22;;;13.80;79.80;;;;;;5026576;28;20057;-73
2022/05/13 04:55:36;;;;;;;6.35;2.65;;;14.00;79.40;;;;;;5013952;28;20030;-73
2022/05/13 04:58:03;;;;;;;3.58;2.58;;;14.10;79.50;;;;;;5032905;28;20037;-72
2022/05/13 05:00:30;;;;;;;7.63;2.67;;;14.20;78.70;;;;;;5033074;28;20374;-72
2022/05/13 05:02:55;;;;;;;5.60;3.22;;;14.40;79.50;;;;;;5033243;28;20025;-73
2022/05/13 05:05:22;;;;;;;4.93;2.30;;;14.50;78.00;;;;;;5033331;28;20507;-72
2022/05/13 05:07:48;;;;;;;4.88;2.47;;;14.60;76.90;;;;;;5033094;28;20048;-73
2022/05/13 05:10:14;;;;;;;3.75;2.30;;;14.70;75.90;;;;;;5024333;28;20026;-72
2022/05/13 05:12:40;;;;;;;4.15;3.00;;;14.80;76.40;;;;;;5015661;28;20044;-72
2022/05/13 05:15:08;;;;;;;6.65;2.70;;;15.00;80.00;;;;;;4995900;28;20018;-74
2022/05/13 05:17:33;;;;;;;3.83;2.08;;;15.20;80.30;;;;;;5012993;28;20053;-73
2022/05/13 05:19:59;;;;;;;8.27;2.40;;;15.40;78.50;;;;;;4996083;28;20025;-73
2022/05/13 05:22:25;;;;;;;10.15;2.90;;;15.50;72.80;;;;;;5014738;28;20029;-73
2022/05/13 05:24:50;;;;;;;4.18;2.20;;;15.70;69.90;;;;;;5032169;28;20026;-73
2022/05/13 05:27:16;;;;;;;5.35;2.00;;;15.90;67.10;;;;;;5033138;28;20022;-73
2022/05/13 05:29:44;;;;;;;3.60;1.60;;;16.00;63.60;;;;;;5033172;28;20026;-73
2022/05/13 05:32:10;;;;;;;3.45;2.00;;;16.20;62.70;;;;;;5032713;28;20022;-73
2022/05/13 05:34:35;;;;;;;5.15;2.08;;;16.40;62.50;;;;;;5033204;28;20034;-73
2022/05/13 05:37:01;;;;;;;3.28;1.70;;;16.50;61.80;;;;;;5032983;28;20132;-74
2022/05/13 05:39:26;;;;;;;2.78;1.88;;;16.60;60.60;;;;;;5033157;28;20079;-73
2022/05/13 05:41:52;;;;;;;3.85;1.35;;;16.80;60.90;;;;;;5033014;28;20151;-74
2022/05/13 05:44:18;;;;;;;3.25;1.58;;;17.00;59.70;;;;;;5015843;28;20545;-73
2022/05/13 05:46:44;;;;;;;3.47;1.70;;;17.20;60.00;;;;;;5036981;28;20017;-73
2022/05/13 05:49:10;;;;;;;4.18;1.65;;;17.30;58.50;;;;;;5036859;28;20029;-73
2022/05/13 05:51:37;;;;;;;6.25;1.60;;;17.40;58.60;;;;;;5018817;28;20025;-74
2022/05/13 05:59:31;;;;;;;2.90;1.38;;;17.60;55.90;;;;;;5037065;28;20060;-74
2022/05/13 06:01:57;;;;;;;1.35;1.20;;;17.70;56.90;;;;;;5028328;28;20025;-74
2022/05/13 06:04:22;;;;;;;26.83;3.25;;;17.80;55.80;;;;;;5034250;28;20506;-73
2022/05/13 06:06:48;;;;;;;2.80;1.85;;;17.90;55.80;;;;;;5033193;28;20025;-74
2022/05/13 06:09:14;;;;;;;3.45;1.30;;;18.00;55.10;;;;;;5031126;28;20044;-73
2022/05/13 06:11:39;;;;;;;4.15;1.50;;;18.20;55.60;;;;;;5025243;28;20025;-74
2022/05/13 06:14:05;;;;;;;4.18;1.35;;;18.30;56.00;;;;;;5033035;28;20043;-76
2022/05/13 06:16:31;;;;;;;4.63;1.40;;;18.40;55.40;;;;;;5039077;28;20052;-73
2022/05/13 06:19:00;;;;;;;1.77;1.10;;;18.70;55.30;;;;;;5040996;28;20057;-73
2022/05/13 06:21:31;;;;;;;1.50;1.40;;;19.00;55.00;;;;;;5052868;28;20063;-74
2022/05/13 06:23:57;;;;;;;5.18;2.03;;;19.10;55.00;;;;;;5037011;28;20173;-73
2022/05/13 06:26:23;;;;;;;3.95;1.88;;;19.20;55.00;;;;;;5055338;28;20483;-74
2022/05/13 06:28:49;;;;;;;4.13;1.30;;;19.40;53.60;;;;;;5053858;28;20487;-73
2022/05/13 06:31:16;;;;;;;5.05;1.50;;;19.50;52.00;;;;;;5055154;28;20112;-73
2022/05/13 06:33:41;;;;;;;6.30;1.90;;;19.70;52.20;;;;;;5040271;28;20033;-74
2022/05/13 06:36:08;;;;;;;3.95;1.45;;;20.00;52.30;;;;;;5041644;28;20075;-74
2022/05/13 06:38:33;;;;;;;3.95;1.35;;;20.10;51.30;;;;;;5051661;28;20057;-74
2022/05/13 06:40:59;;;;;;;3.67;1.30;;;20.10;51.20;;;;;;5034921;28;20025;-73
2022/05/13 06:43:24;;;;;;;5.30;1.35;;;20.20;49.20;;;;;;5052548;28;20040;-73
2022/05/13 06:45:51;;;;;;;4.03;1.30;;;20.20;49.60;;;;;;5037020;28;20022;-74
2022/05/13 06:48:16;;;;;;;2.65;1.48;;;20.30;48.30;;;;;;5045264;28;20562;-73
2022/05/13 06:50:43;;;;;;;8.32;1.48;;;20.30;49.70;;;;;;5042744;28;20101;-74
2022/05/13 06:53:09;;;;;;;2.33;1.60;;;20.30;48.80;;;;;;5053426;28;20025;-74
2022/05/13 06:55:35;;;;;;;3.42;1.45;;;20.40;49.80;;;;;;5054255;28;20070;-73
2022/05/13 06:58:01;;;;;;;1.88;1.27;;;20.40;49.70;;;;;;5053559;28;20036;-73
2022/05/13 07:00:26;;;;;;;6.60;2.10;;;20.30;49.40;;;;;;5054443;28;20376;-74
2022/05/13 07:02:52;;;;;;;4.35;2.00;;;20.30;50.40;;;;;;5024572;28;20052;-74
2022/05/13 07:05:20;;;;;;;3.83;1.20;;;20.40;49.70;;;;;;5036716;28;20116;-74
2022/05/13 07:07:46;;;;;;;3.40;1.40;;;20.40;49.20;;;;;;5035969;28;20112;-74
2022/05/13 07:10:12;;;;;;;6.18;1.70;;;20.50;50.00;;;;;;5052206;28;20033;-73
2022/05/13 07:12:38;;;;;;;5.05;1.58;;;20.50;50.60;;;;;;5036214;28;20021;-73
2022/05/13 07:15:07;;;;;;;3.45;1.40;;;20.50;48.70;;;;;;5053946;28;20037;-74
2022/05/13 07:17:32;;;;;;;9.27;1.88;;;20.50;49.10;;;;;;5050107;28;20069;-73
2022/05/13 07:19:58;;;;;;;3.53;1.55;;;20.40;48.20;;;;;;5053727;28;20083;-74
2022/05/13 07:22:24;;;;;;;2.95;1.35;;;20.40;48.30;;;;;;5028579;28;20479;-73
2022/05/13 07:24:51;;;;;;;5.30;1.65;;;20.40;47.50;;;;;;5035524;28;20143;-73
2022/05/13 07:27:17;;;;;;;6.60;1.85;;;20.50;48.50;;;;;;5054196;28;20355;-74
2022/05/13 07:29:42;;;;;;;2.15;1.40;;;20.60;48.00;;;;;;5035511;28;20029;-73
2022/05/13 07:32:08;;;;;;;4.47;1.77;;;20.60;47.00;;;;;;5024617;28;20416;-75
2022/05/13 07:34:34;;;;;;;3.92;1.60;;;20.60;46.50;;;;;;5053590;28;20410;-74
2022/05/13 07:37:00;;;;;;;1.48;1.38;;;20.60;47.10;;;;;;5053369;28;20039;-75
2022/05/13 07:42:11;;;;;;;4.45;1.70;;;20.50;46.50;;;;;;5053707;28;20439;-75
2022/05/13 07:44:37;;;;;;;5.53;1.42;;;20.40;46.10;;;;;;5035727;28;20029;-75
2022/05/13 07:47:04;;;;;;;8.30;2.00;;;20.40;46.30;;;;;;5034357;28;20025;-75
2022/05/13 07:49:30;;;;;;;3.15;1.90;;;20.50;47.30;;;;;;5025542;28;20132;-75
2022/05/13 07:51:56;;;;;;;5.95;2.08;;;20.50;46.50;;;;;;5032822;28;20077;-74
2022/05/13 07:54:22;;;;;;;7.90;2.35;;;20.60;46.40;;;;;;5053250;28;20033;-74
2022/05/13 07:56:48;;;;;;;2.05;1.73;;;20.70;46.30;;;;;;5053072;28;20025;-75
2022/05/13 07:59:13;;;;;;;2.60;1.70;;;20.70;46.00;;;;;;5053026;28;20040;-75
2022/05/13 08:01:39;;;;;;;3.90;1.65;;;20.50;47.40;;;;;;5028060;28;20406;-74
2022/05/13 08:04:05;;;;;;;8.27;2.28;;;20.50;47.70;;;;;;5039910;28;20074;-75
2022/05/13 08:06:30;;;;;;;4.80;2.05;;;20.60;49.40;;;;;;5036160;28;20055;-74
2022/05/13 08:08:56;;;;;;;5.47;2.05;;;20.80;48.60;;;;;;5006746;28;20021;-75
2022/05/13 08:11:23;;;;;;;5.63;2.05;;;20.90;48.60;;;;;;5026354;28;20030;-74
2022/05/13 08:13:49;;;;;;;7.95;2.67;;;21.00;49.00;;;;;;5024907;28;20018;-74
2022/05/13 08:16:17;;;;;;;8.25;2.60;;;20.90;49.40;;;;;;5025004;28;20048;-74
2022/05/13 08:18:44;;;;;;;7.40;2.53;;;21.00;49.70;;;;;;5028806;28;20410;-74
2022/05/13 08:21:10;;;;;;;4.72;2.28;;;20.80;49.10;;;;;;5031349;28;20034;-75
2022/05/13 08:23:36;;;;;;;6.28;2.25;;;20.70;49.50;;;;;;5032320;28;20017;-75
2022/05/13 08:26:02;;;;;;;11.43;2.45;;;20.60;49.30;;;;;;5031472;28;20045;-75
2022/05/13 08:28:28;;;;;;;4.90;2.70;;;20.70;49.60;;;;;;5023706;28;20041;-75
2022/05/13 08:30:54;;;;;;;4.07;2.17;;;20.70;49.60;;;;;;5031294;28;20463;-75
2022/05/13 08:33:19;;;;;;;9.10;2.78;;;20.80;49.20;;;;;;5032564;28;20419;-75
2022/05/13 08:35:47;;;;;;;10.38;2.55;;;20.90;48.70;;;;;;5031974;28;20080;-75
2022/05/13 08:38:18;;;;;;;7.05;2.40;;;21.10;49.10;;;;;;5032438;28;20037;-76
2022/05/13 08:41:05;;;;;;;6.95;1.90;;;21.30;48.40;;;;;;5032170;28;20021;-75
2022/05/13 08:43:42;;;;;;;3.20;1.63;;;21.80;48.40;;;;;;5032669;28;20045;-75
2022/05/13 08:46:17;;;;;;;5.85;2.20;;;22.20;47.20;;;;;;5032754;28;20487;-76
2022/05/13 08:49:07;;;;;;;5.85;2.63;;;22.00;46.10;;;;;;5031750;28;20040;-74
2022/05/13 08:51:54;;;;;;;8.10;2.63;;;21.80;46.30;;;;;;5024297;28;20491;-73
2022/05/13 08:54:24;;;;;;;5.63;2.30;;;21.50;46.40;;;;;;5032458;28;20103;-75
2022/05/13 08:56:57;;;;;;;11.50;2.60;;;21.50;47.20;;;;;;5031124;28;20021;-75
2022/05/13 08:59:28;;;;;;;;;;;21.40;47.80;;;;;;5032673;28;20466;-74
2022/05/13 09:02:03;;;;;;;3.97;1.88;;;21.50;46.30;;;;;;5032381;28;19905;-74
2022/05/13 09:04:36;;;;;;;5.15;2.00;;;21.70;44.70;;;;;;5031500;28;20038;-74
2022/05/13 09:07:06;;;;;;;4.57;1.80;;;21.70;44.00;;;;;;5032508;28;20022;-74
2022/05/13 09:09:34;;;;;;;8.02;2.40;;;21.50;44.70;;;;;;5032062;28;20051;-74
2022/05/13 09:12:17;;;;;;;5.00;1.70;;;21.60;44.30;;;;;;5031961;28;20018;-75
2022/05/13 09:15:20;;;;;;;4.90;1.50;;;21.60;43.90;;;;;;5023018;28;20087;-74
2022/05/13 09:17:54;;;;;;;5.03;1.75;;;21.80;44.80;;;;;;5030127;28;20056;-74
2022/05/13 09:20:25;;;;;;;5.57;1.90;;;21.90;42.50;;;;;;5029604;28;20034;-74
2022/05/13 09:22:52;;;;;;;5.40;1.73;;;22.00;42.10;;;;;;5031848;28;20087;-74
2022/05/13 09:25:25;;;;;;;7.07;2.10;;;22.20;41.70;;;;;;5031712;28;20040;-75
2022/05/13 09:27:59;;;;;;;5.03;1.85;;;22.20;41.70;;;;;;5020833;28;20494;-74
2022/05/13 09:30:39;;;;;;;9.60;2.40;;;22.20;42.60;;;;;;5031888;28;20037;-75
2022/05/13 09:33:40;;;;;;;5.47;1.80;;;22.20;42.50;;;;;;5030115;28;20028;-75
2022/05/13 09:36:06;;;;;;;4.68;1.80;;;22.50;41.20;;;;;;5031950;28;20034;-75
2022/05/13 09:38:55;;;;;;;7.70;2.00;;;22.60;40.90;;;;;;5030400;28;20390;-75
2022/05/13 09:41:33;;;;;;;5.65;1.50;;;22.70;39.70;;;;;;5013356;28;20041;-75
2022/05/13 09:44:17;;;;;;;7.93;1.90;;;22.70;41.30;;;;;;5031059;28;20060;-74
2022/05/13 09:46:47;;;;;;;5.90;1.70;;;22.50;40.10;;;;;;5031945;28;20022;-74
2022/05/13 09:49:33;;;;;;;4.45;2.05;;;22.50;40.90;;;;;;5031427;28;20564;-74
2022/05/13 09:52:06;;;;;;;2.83;1.30;;;22.50;40.10;;;;;;5018410;28;20033;-75
2022/05/13 09:54:34;;;;;;;4.00;1.45;;;22.60;39.70;;;;;;5020270;28;20030;-75
2022/05/13 09:57:16;;;;;;;5.55;1.58;;;22.60;40.20;;;;;;5031516;28;20471;-74
2022/05/13 09:59:53;;;;;;;5.32;1.48;;;22.80;40.60;;;;;;5030058;28;20124;-75
2022/05/13 10:02:19;;;;;;;3.17;1.40;;;23.00;39.30;;;;;;5025766;28;20036;-75
2022/05/13 10:05:09;;;;;;;2.13;1.25;;;23.30;38.90;;;;;;5024379;28;20029;-75
2022/05/13 10:07:34;;;;;;;8.65;1.73;;;23.40;38.80;;;;;;5031622;28;20033;-74
2022/05/13 10:15:39;;;;;;;6.38;1.70;;;23.70;40.30;;;;;;5021349;28;20044;-74
2022/05/13 10:18:09;;;;;;;;;;;23.60;38.60;;;;;;5030002;28;20081;-75
2022/05/13 10:20:40;;;;;;;6.18;2.00;;;23.20;38.30;;;;;;5029861;28;19959;-75
2022/05/13 10:23:28;;;;;;;6.10;1.98;;;23.00;39.20;;;;;;5028312;28;20028;-75
2022/05/13 10:26:29;;;;;;;5.35;1.73;;;23.00;38.90;;;;;;5029610;28;20033;-75
2022/05/13 10:29:03;;;;;;;4.45;1.50;;;23.10;40.00;;;;;;4992705;28;20567;-75
2022/05/13 10:31:33;;;;;;;4.93;1.63;;;23.10;40.20;;;;;;5031654;28;20022;-75
2022/05/13 10:34:04;;;;;;;4.90;1.83;;;23.10;40.00;;;;;;5033440;28;20053;-74
2022/05/13 10:36:39;;;;;;;9.10;2.38;;;23.40;40.60;;;;;;5035235;28;20071;-74
2022/05/13 10:39:15;;;;;;;3.60;1.70;;;23.40;40.20;;;;;;5033931;28;20029;-75
2022/05/13 10:41:52;;;;;;;7.95;2.47;;;23.70;41.20;;;;;;5019180;28;20096;-75
2022/05/13 10:44:52;;;;;;;4.72;1.80;;;23.80;39.50;;;;;;5034478;28;20553;-74
2022/05/13 10:47:37;;;;;;;4.32;1.52;;;24.10;40.30;;;;;;5021555;28;20164;-75
2022/05/13 10:50:09;;;;;;;7.13;1.73;;;24.30;39.90;;;;;;5034546;28;20021;-75
2022/05/13 10:52:50;;;;;;;6.10;2.03;;;24.50;38.90;;;;;;5034390;28;20021;-75
2022/05/13 10:55:23;;;;;;;4.03;1.58;;;24.80;39.20;;;;;;5034548;28;20098;-74
2022/05/13 10:58:04;;;;;;;4.93;1.95;;;24.90;38.70;;;;;;5021703;28;20034;-74
2022/05/13 11:00:51;;;;;;;6.15;1.95;;;25.00;39.20;;;;;;5015885;28;20026;-75
2022/05/13 11:03:34;;;;;;;4.72;1.98;;;25.00;38.70;;;;;;4998280;28;20079;-74
2022/05/13 11:06:21;;;;;;;6.80;2.13;;;24.80;38.60;;;;;;4998120;28;20033;-75
2022/05/13 11:09:09;;;;;;;3.85;1.95;;;24.60;39.20;;;;;;5015626;28;20112;-76
2022/05/13 11:11:43;;;;;;;7.28;2.47;;;24.30;40.80;;;;;;5015839;28;20064;-75
2022/05/13 11:14:39;;;;;;;5.00;2.05;;;24.30;39.70;;;;;;5015744;28;20029;-75
2022/05/13 11:17:20;;;;;;;5.55;2.10;;;23.80;38.10;;;;;;4991468;28;20201;-74
2022/05/13 11:19:49;;;;;;;11.73;6.10;;;23.40;38.80;;;;;;4995979;28;20105;-75
2022/05/13 11:22:36;;;;;;;6.90;2.95;;;23.30;39.00;;;;;;4996001;28;20027;-74
2022/05/13 11:28:03;;;;;;;4.55;2.60;;;23.10;41.80;;;;;;5014756;28;20529;-75
2022/05/13 11:30:38;;;;;;;6.30;3.05;;;23.40;42.20;;;;;;4997827;28;20029;-75
2022/05/13 11:33:52;;;;;;;7.50;2.60;;;23.50;41.70;;;;;;5015242;28;20105;-75
2022/05/13 11:36:20;;;;;;;5.88;2.83;;;23.70;42.60;;;;;;4985349;28;20038;-75
2022/05/13 11:39:03;;;;;;;12.07;3.33;;;24.10;41.90;;;;;;5015176;28;20044;-75
2022/05/13 11:41:45;;;;;;;5.18;3.38;;;23.90;40.60;;;;;;4997515;28;20072;-75
2022/05/13 11:44:12;;;;;;;5.60;3.08;;;23.90;40.10;;;;;;5014951;28;20438;-74
2022/05/13 11:47:23;;;;;;;9.23;3.83;;;24.00;40.50;;;;;;4997798;28;20472;-75
2022/05/13 11:49:49;;;;;;;5.07;3.00;;;24.30;40.50;;;;;;4959324;28;20536;-75
2022/05/13 11:52:15;;;;;;;9.90;2.80;;;24.30;40.40;;;;;;5009631;28;20034;-75
2022/05/13 11:54:42;;;;;;;6.18;3.30;;;24.30;39.70;;;;;;5015063;28;20557;-75
2022/05/13 11:57:16;;;;;;;4.78;2.38;;;24.10;40.10;;;;;;5014781;28;20032;-76
2022/05/13 11:59:51;;;;;;;8.57;3.05;;;24.30;41.00;;;;;;5013702;28;20487;-75
2022/05/13 12:02:48;;;;;;;5.45;2.97;;;24.50;41.40;;;;;;5014788;28;20109;-75
2022/05/13 12:05:16;;;;;;;5.07;3.30;;;24.30;41.00;;;;;;5013500;28;20030;-76
2022/05/13 12:07:52;;;;;;;4.88;2.42;;;24.30;40.40;;;;;;5014588;28;20037;-75
2022/05/13 12:10:23;;;;;;;6.90;3.47;;;24.30;41.40;;;;;;5014420;28;20026;-75
2022/05/13 12:13:06;;;;;;;5.53;2.78;;;24.30;40.90;;;;;;5013331;28;20022;-75
2022/05/13 12:15:34;;;;;;;7.45;3.20;;;24.30;39.90;;;;;;5006504;28;20512;-75
2022/05/13 12:18:22;;;;;;;9.50;2.85;;;24.60;41.00;;;;;;4996683;28;20049;-75
2022/05/13 12:21:15;;;;;;;5.35;2.90;;;24.70;40.60;;;;;;4995659;28;20117;-75
2022/05/13 12:24:01;;;;;;;6.60;3.05;;;24.90;39.70;;;;;;4996209;28;20117;-75
2022/05/13 12:26:52;;;;;;;4.05;2.38;;;25.10;39.30;;;;;;5008162;28;20345;-75
2022/05/13 12:29:21;;;;;;;9.43;3.00;;;25.10;38.10;;;;;;5011536;28;20472;-75
2022/05/13 12:31:53;;;;;;;5.72;2.72;;;24.90;38.20;;;;;;5002472;28;20026;-75
2022/05/13 12:37:46;;;;;;;17.08;6.68;;;24.90;37.90;;;;;;5013197;28;20141;-75
2022/05/13 12:40:31;;;;;;;11.75;5.45;;;25.10;39.20;;;;;;5012807;28;20042;-75
2022/05/13 12:43:04;;;;;;;22.95;11.90;;;24.80;39.50;;;;;;4991372;28;20561;-73
2022/05/13 12:45:39;;;;;;;6.50;3.22;;;24.70;39.40;;;;;;5012290;28;20129;-76
2022/05/13 12:48:08;;;;;;;6.93;2.00;;;24.50;38.80;;;;;;4995397;28;20056;-76
2022/05/13 12:51:13;;;;;;;21.65;8.63;;;24.20;39.70;;;;;;4997898;28;20033;-75
2022/05/13 12:53:50;;;;;;;18.50;6.03;;;24.40;40.00;;;;;;5010700;28;20042;-76
2022/05/13 12:56:28;;;;;;;12.85;5.22;;;24.50;41.40;;;;;;5012419;28;20045;-76
2022/05/13 12:59:13;;;;;;;41.90;24.92;;;24.40;39.80;;;;;;5012316;28;20041;-76
2022/05/13 13:01:42;;;;;;;4.93;2.38;;;24.20;40.50;;;;;;5011275;28;20049;-76
2022/05/13 13:04:09;;;;;;;8.23;3.45;;;24.00;40.30;;;;;;5012580;28;20033;-75
2022/05/13 13:06:39;;;;;;;11.15;4.55;;;23.70;40.60;;;;;;5012658;28;20040;-75
2022/05/13 13:09:05;;;;;;;13.02;6.40;;;23.80;41.50;;;;;;5012371;28;20025;-75
2022/05/13 13:11:47;;;;;;;12.55;4.63;;;23.90;42.10;;;;;;5010467;28;20030;-73
2022/05/13 13:14:37;;;;;;;21.58;7.07;;;24.00;42.10;;;;;;5012718;28;20492;-73
2022/05/13 13:17:24;;;;;;;13.45;5.32;;;24.10;42.00;;;;;;5013980;28;20053;-74
2022/05/13 13:19:57;;;;;;;22.50;9.90;;;24.30;41.40;;;;;;5030805;28;20028;-75
2022/05/13 13:22:23;;;;;;;11.23;4.72;;;24.30;41.20;;;;;;5030979;28;20486;-75
2022/05/13 13:24:49;;;;;;;6.25;2.80;;;24.40;41.20;;;;;;5031814;28;20032;-75
2022/05/13 13:27:18;;;;;;;8.07;2.50;;;24.40;41.40;;;;;;5030536;28;20021;-76
2022/05/13 13:29:46;;;;;;;8.10;2.30;;;24.20;40.90;;;;;;5031850;28;20049;-76
2022/05/13 13:32:16;;;;;;;10.40;1.95;;;24.00;40.20;;;;;;5032122;28;20029;-76
2022/05/13 13:34:57;;;;;;;10.15;3.30;;;24.10;40.50;;;;;;5030430;28;20053;-76